Sagamihara, Japan
Current Conditions -  °F | °C
As of 10:58 AM on Thursday 18 Dec 2014 (Local Time) from RJTY Reporting Station
Clear Clear  
Wind Chill: 39°   Ceiling: Unl
Heat Index: 43°   Visibility: 10mi
Dew Point:   Wind: 6mph
Humidity: 24%   Direction: 340°NNW
Pressure: 29.97"   Gusts: NA
Location:  35.58°N, 139.38°E
Report Text: RJTY 180158Z AUTO 34005KT 10SM CLR 06/M13 A2997 RMK AO2 SLP158 T00601131
Loading
Personal Weather Stations






























Interactive Weather Map New forecast layout! Learn more

10-Day Weather Forecast

Advertisements
Track Severe Weather on mobile